Wind EuroAirport

Messzeit Windrichtung Windgeschwindigkeit [Knoten] Rückenwind Nordpiste [Knoten] METAR
2024-06-16 17:00 W 280°
(240°–320°)
8 0–8 LFSB 161500Z AUTO 28008KT 240V320 9999 FEW056 BKN100 BKN130 23/13 Q1011 TEMPO SHRA SCT040TCU
2024-06-16 16:30 W 290°
(220°–310°)
6 0–5 LFSB 161430Z AUTO 29006KT 220V310 9999 FEW054 BKN100 OVC160 23/12 Q1011 TEMPO SHRA SCT040TCU
2024-06-16 16:00 NW 320°
(270°–350°)
4 1–4 LFSB 161400Z AUTO 32004KT 270V350 CAVOK 23/12 Q1011 TEMPO SHRA SCT040TCU
2024-06-16 15:30 NW 300°
(220°–30°)
3 0–3 LFSB 161330Z AUTO 30003KT 220V030 CAVOK 24/13 Q1011 TEMPO SHRA SCT040TCU
2024-06-16 15:00 W 280°
(160°–320°)
5 0–5 LFSB 161300Z AUTO 28005KT 160V320 CAVOK 23/12 Q1011 TEMPO SHRA SCT040TCU
2024-06-16 14:30 SO 120°
(50°–200°)
4 0–1 LFSB 161230Z AUTO 12004KT 050V200 CAVOK 22/11 Q1011 TEMPO 29010KT SHRA SCT040TCU
2024-06-16 14:00 - 3 - LFSB 161200Z AUTO VRB03KT 9999 FEW047 SCT094 22/12 Q1011 NOSIG
2024-06-16 13:30 - 3 - LFSB 161130Z AUTO VRB03KT 9999 FEW047 SCT180 22/11 Q1011 NOSIG
2024-06-16 13:00 S 180°
(130°–240°)
4 - LFSB 161100Z AUTO 18004KT 130V240 9999 FEW046 SCT054 BKN190 21/11 Q1011 NOSIG
2024-06-16 12:30 SO 130°
(100°–190°)
5 - LFSB 161030Z AUTO 13005KT 100V190 9999 FEW045 BKN054 BKN140 21/10 Q1012 NOSIG
2024-06-16 12:00 - 3 - LFSB 161000Z AUTO VRB03KT 9999 SCT048 BKN054 BKN066 20/10 Q1012 NOSIG
2024-06-16 11:30 SW 240°
(170°–300°)
4 0–3 LFSB 160930Z AUTO 24004KT 170V300 9999 BKN049 OVC056 20/10 Q1012 NOSIG
2024-06-16 11:00 W 250°
(200°–310°)
6 0–5 LFSB 160900Z AUTO 25006KT 200V310 9999 BKN047 BKN054 19/09 Q1012 NOSIG
2024-06-16 10:30 - 5 - LFSB 160830Z AUTO VRB05KT 9999 SCT045 BKN054 18/10 Q1012 NOSIG
2024-06-16 10:00 SO 140°
(70°–220°)
4 - LFSB 160800Z AUTO 14004KT 070V220 9999 FEW040 OVC056 18/09 Q1013 NOSIG
2024-06-16 09:30 SO 150°
(110°–210°)
4 - LFSB 160730Z AUTO 15004KT 110V210 9999 FEW034 BKN060 18/11 Q1013 NOSIG
2024-06-16 09:00 W 250°
(220°–280°)
5 0–3 LFSB 160700Z AUTO 25005KT 220V280 CAVOK 16/11 Q1013 NOSIG
2024-06-16 08:30 SW 240°
(210°–290°)
5 0–3 LFSB 160630Z AUTO 24005KT 210V290 CAVOK 16/11 Q1013 NOSIG
2024-06-16 08:00 SW 240°
(210°–280°)
5 0–3 LFSB 160600Z AUTO 24005KT 210V280 CAVOK 15/10 Q1013 NOSIG
2024-06-16 07:30 - 2 - LFSB 160530Z AUTO VRB02KT CAVOK 15/11 Q1013 NOSIG
2024-06-16 07:00 SW 230°
(200°–260°)
4 0–1 LFSB 160500Z AUTO 23004KT 200V260 CAVOK 14/10 Q1013 NOSIG
2024-06-16 06:30 SW 240° 6 - LFSB 160430Z AUTO 24006KT CAVOK 14/10 Q1013 NOSIG
2024-06-16 06:00 W 250° 8 - LFSB 160400Z AUTO 25008KT CAVOK 14/11 Q1013 NOSIG
2024-06-16 05:30 SW 240° 5 - LFSB 160330Z AUTO 24005KT CAVOK 14/11 Q1013 NOSIG
2024-06-16 05:00 SW 230°
(200°–260°)
5 0–1 LFSB 160300Z AUTO 23005KT 200V260 CAVOK 14/11 Q1013 NOSIG
2024-06-16 04:30 SW 230° 4 - LFSB 160230Z AUTO 23004KT CAVOK 14/11 Q1013 NOSIG
2024-06-16 04:00 SW 230° 5 - LFSB 160200Z AUTO 23005KT 9999 -RA FEW050 BKN078 BKN090 15/11 Q1013 NOSIG
2024-06-16 03:30 SW 240° 8 - LFSB 160130Z AUTO 24008KT 9999 FEW054 BKN074 OVC084 15/11 Q1013 NOSIG
2024-06-16 03:00 W 250° 9 - LFSB 160100Z AUTO 25009KT CAVOK 15/10 Q1013 NOSIG
2024-06-16 02:30 SW 240°
(210°–270°)
7 0–2 LFSB 160030Z AUTO 24007KT 210V270 CAVOK 15/10 Q1013 NOSIG
2024-06-16 02:00 SW 240° 6 - LFSB 160000Z AUTO 24006KT 9999 FEW054 BKN110 15/11 Q1013 NOSIG
2024-06-16 01:30 SW 210° 4 - LFSB 152330Z AUTO 21004KT 9999 FEW050 OVC100 15/11 Q1013 NOSIG
2024-06-16 01:00 SW 210°
(180°–240°)
4 - LFSB 152300Z AUTO 21004KT 180V240 CAVOK 16/11 Q1013 NOSIG
2024-06-16 00:30 W 290° 2 1 LFSB 152230Z AUTO 29002KT CAVOK 15/12 Q1013 NOSIG
2024-06-16 00:00 W 270° 6 2 LFSB 152200Z AUTO 27006KT 9999 FEW047 BKN058 BKN068 15/11 Q1013 NOSIG
2024-06-15 23:30 NW 300° 3 2 LFSB 152130Z AUTO 30003KT 9999 FEW049/// OVC100/// //////TCU 15/12 Q1013 BECMG FEW045 BKN070
2024-06-15 23:00 - 0 - LFSB 152100Z AUTO 00000KT CAVOK 15/11 Q1012 NOSIG
2024-06-15 22:30 - 0 - LFSB 152030Z AUTO 00000KT CAVOK 16/11 Q1012 NOSIG
2024-06-15 22:00 W 270° 3 1 LFSB 152000Z AUTO 27003KT CAVOK 16/12 Q1012 NOSIG
2024-06-15 21:30 W 280° 4 2 LFSB 151930Z AUTO 28004KT CAVOK 17/11 Q1012 NOSIG
2024-06-15 21:00 W 280°
(250°–310°)
3 0–3 LFSB 151900Z AUTO 28003KT 250V310 CAVOK 18/10 Q1011 NOSIG
2024-06-15 20:30 W 280° 9 5 LFSB 151830Z AUTO 28009KT CAVOK 19/09 Q1011 NOSIG
2024-06-15 20:00 W 260°
(230°–300°)
8 0–6 LFSB 151800Z AUTO 26008KT 230V300 CAVOK 20/10 Q1011 NOSIG
2024-06-15 19:30 W 260° 12 2 LFSB 151730Z AUTO 26012KT 9999 FEW052 OVC086 20/10 Q1011 BECMG 20005KT
2024-06-15 19:00 W 270°
(240°–310°)
10 0–9 LFSB 151700Z AUTO 27010KT 240V310 9999 FEW052 BKN082 21/10 Q1011 NOSIG
2024-06-15 18:30 W 260°
(230°–320°)
12 0–11 LFSB 151630Z AUTO 26012KT 230V320 9999 FEW052 BKN076 21/10 Q1011 NOSIG
2024-06-15 18:00 W 270°
(230°–300°)
8 0–6 LFSB 151600Z AUTO 27008KT 230V300 9999 FEW052 BKN078 OVC092 20/10 Q1011 NOSIG